Time;durP1;ratioP1;P1;durP2;ratioP2;P2;SDS_P1;SDS_P2;PMS_P1;PMS_P2;Temp;Humidity;BMP_temperature;BMP_pressure;BME280_temperature;BME280_humidity;BME280_pressure;Samples;Min_cycle;Max_cycle;Signal;HPM_P1;HPM_P2
2023/04/19 00:00:33;;;;;;;9.40;6.68;;;;;;;;;;5090529;28;20048;-71
2023/04/19 00:03:01;;;;;;;9.52;6.72;;;;;;;;;;5090050;28;20044;-71
2023/04/19 00:05:28;;;;;;;9.45;6.43;;;;;;;;;;5089553;28;20048;-72
2023/04/19 00:07:55;;;;;;;8.63;5.97;;;;;;;;;;5089888;28;20134;-71
2023/04/19 00:10:22;;;;;;;8.73;5.60;;;;;;;;;;5089597;28;20048;-71
2023/04/19 00:12:48;;;;;;;9.05;6.05;;;;;;;;;;5089863;28;20047;-70
2023/04/19 00:15:15;;;;;;;9.55;6.60;;;;;;;;;;5089767;28;20040;-70
2023/04/19 00:17:41;;;;;;;7.97;5.93;;;;;;;;;;5089698;28;20048;-71
2023/04/19 00:20:12;;;;;;;8.90;5.82;;;;;;;;;;5089304;28;20062;-70
2023/04/19 00:22:38;;;;;;;9.57;6.20;;;;;;;;;;5090013;28;20058;-71
2023/04/19 00:25:05;;;;;;;8.60;6.10;;;;;;;;;;5089668;28;20044;-71
2023/04/19 00:27:32;;;;;;;10.10;6.60;;;;;;;;;;5089680;28;20109;-72
2023/04/19 00:29:59;;;;;;;8.63;6.00;;;;;;;;;;5093289;28;20044;-71
2023/04/19 00:32:26;;;;;;;9.32;6.38;;;;;;;;;;5093739;28;20048;-72
2023/04/19 00:34:52;;;;;;;7.13;4.97;;;;;;;;;;5093621;28;20079;-72
2023/04/19 00:37:20;;;;;;;8.85;5.95;;;;;;;;;;5093516;28;20512;-71
2023/04/19 00:39:47;;;;;;;6.88;5.40;;;;;;;;;;5093865;28;20048;-71
2023/04/19 00:42:14;;;;;;;9.15;6.13;;;;;;;;;;5093778;28;20090;-73
2023/04/19 00:44:40;;;;;;;9.45;5.72;;;;;;;;;;5093511;28;20044;-72
2023/04/19 00:47:07;;;;;;;7.50;6.05;;;;;;;;;;5092980;28;20052;-71
2023/04/19 00:49:34;;;;;;;8.88;5.63;;;;;;;;;;5093890;28;20188;-71
2023/04/19 00:52:01;;;;;;;8.63;6.07;;;;;;;;;;5093804;28;20373;-70
2023/04/19 00:54:29;;;;;;;8.65;5.90;;;;;;;;;;5093885;28;20048;-71
2023/04/19 00:56:57;;;;;;;7.68;5.70;;;;;;;;;;5093069;28;20044;-71
2023/04/19 00:59:24;;;;;;;7.75;6.10;;;;;;;;;;5093217;28;20051;-71
2023/04/19 01:01:51;;;;;;;7.95;6.05;;;;;;;;;;5093012;28;20504;-71
2023/04/19 01:04:18;;;;;;;8.70;5.43;;;;;;;;;;5093601;28;20051;-71
2023/04/19 01:06:45;;;;;;;7.63;5.78;;;;;;;;;;5093019;28;20087;-72
2023/04/19 01:09:11;;;;;;;8.40;5.47;;;;;;;;;;5092898;28;20044;-71
2023/04/19 01:11:39;;;;;;;7.90;5.43;;;;;;;;;;5092999;28;20043;-71
2023/04/19 01:14:06;;;;;;;9.65;5.90;;;;;;;;;;5093020;28;20547;-72
2023/04/19 01:16:33;;;;;;;8.93;5.78;;;;;;;;;;5093116;28;20047;-72
2023/04/19 01:18:59;;;;;;;9.38;5.85;;;;;;;;;;5092868;28;20055;-71
2023/04/19 01:21:28;;;;;;;9.70;5.32;;;;;;;;;;5093016;28;20060;-71
2023/04/19 01:23:56;;;;;;;8.63;5.50;;;;;;;;;;5092671;28;20050;-72
2023/04/19 01:26:22;;;;;;;7.88;5.75;;;;;;;;;;5093023;28;20055;-72
2023/04/19 01:28:49;;;;;;;8.02;5.82;;;;;;;;;;5092185;28;20044;-73
2023/04/19 01:31:16;;;;;;;8.85;5.97;;;;;;;;;;5093170;28;20050;-73
2023/04/19 01:33:43;;;;;;;8.95;6.05;;;;;;;;;;5092670;28;20124;-72
2023/04/19 01:36:09;;;;;;;8.00;5.47;;;;;;;;;;5092691;28;20079;-72
2023/04/19 01:38:36;;;;;;;7.65;5.47;;;;;;;;;;5092277;28;20052;-72
2023/04/19 01:41:05;;;;;;;8.43;5.80;;;;;;;;;;5092106;28;20481;-71
2023/04/19 01:43:32;;;;;;;6.60;5.35;;;;;;;;;;5091930;28;20062;-72
2023/04/19 01:45:58;;;;;;;7.35;5.30;;;;;;;;;;5092784;28;20047;-71
2023/04/19 01:48:25;;;;;;;8.02;6.13;;;;;;;;;;5091813;28;20050;-71
2023/04/19 01:50:52;;;;;;;8.88;6.10;;;;;;;;;;5092645;28;20130;-73
2023/04/19 01:53:19;;;;;;;8.07;5.45;;;;;;;;;;5092181;28;20048;-72
2023/04/19 01:55:45;;;;;;;7.25;5.60;;;;;;;;;;5092530;28;20047;-71
2023/04/19 01:58:14;;;;;;;8.48;5.95;;;;;;;;;;5092278;28;20409;-73
2023/04/19 02:00:40;;;;;;;7.93;5.53;;;;;;;;;;5092728;28;20044;-71
2023/04/19 02:03:07;;;;;;;7.82;6.32;;;;;;;;;;5092231;28;20044;-71
2023/04/19 02:05:34;;;;;;;7.97;5.53;;;;;;;;;;5092355;28;20097;-71
2023/04/19 02:08:01;;;;;;;8.65;5.95;;;;;;;;;;5091989;28;20083;-72
2023/04/19 02:10:28;;;;;;;7.38;5.28;;;;;;;;;;5091580;28;20044;-71
2023/04/19 02:12:54;;;;;;;10.75;5.75;;;;;;;;;;5091827;28;20048;-71
2023/04/19 02:15:23;;;;;;;8.43;5.75;;;;;;;;;;5091820;28;20040;-71
2023/04/19 02:17:50;;;;;;;7.55;5.03;;;;;;;;;;5091859;28;20043;-70
2023/04/19 02:20:17;;;;;;;8.65;5.55;;;;;;;;;;5091543;28;20535;-71
2023/04/19 02:22:43;;;;;;;7.70;5.70;;;;;;;;;;5091936;28;20078;-71
2023/04/19 02:25:10;;;;;;;8.18;4.93;;;;;;;;;;5091216;28;20063;-72
2023/04/19 02:27:37;;;;;;;7.38;5.50;;;;;;;;;;5091345;28;20140;-70
2023/04/19 02:30:03;;;;;;;6.97;5.63;;;;;;;;;;5091487;28;20044;-71
2023/04/19 02:32:32;;;;;;;7.25;5.15;;;;;;;;;;5091828;28;20051;-71
2023/04/19 02:34:58;;;;;;;6.78;5.28;;;;;;;;;;5091353;28;20070;-71
2023/04/19 02:37:25;;;;;;;8.88;5.78;;;;;;;;;;5091416;28;20055;-70
2023/04/19 02:39:51;;;;;;;8.45;5.32;;;;;;;;;;5090954;28;20500;-71
2023/04/19 02:42:18;;;;;;;11.38;5.32;;;;;;;;;;5091673;28;20517;-71
2023/04/19 02:44:45;;;;;;;9.27;5.43;;;;;;;;;;5091170;28;20433;-71
2023/04/19 02:47:11;;;;;;;7.10;5.50;;;;;;;;;;5091267;28;20482;-72
2023/04/19 02:49:40;;;;;;;7.75;5.20;;;;;;;;;;5091413;28;20070;-72
2023/04/19 02:52:07;;;;;;;7.35;4.95;;;;;;;;;;5090200;28;20043;-70
2023/04/19 02:54:33;;;;;;;7.78;5.28;;;;;;;;;;5091162;28;20328;-70
2023/04/19 02:57:00;;;;;;;7.78;5.15;;;;;;;;;;5090726;28;20048;-72
2023/04/19 02:59:27;;;;;;;6.70;5.00;;;;;;;;;;5091458;28;20405;-71
2023/04/19 03:01:53;;;;;;;7.25;5.63;;;;;;;;;;5091124;28;20048;-70
2023/04/19 03:04:20;;;;;;;12.70;7.32;;;;;;;;;;5091357;28;20055;-72
2023/04/19 03:06:48;;;;;;;8.07;5.55;;;;;;;;;;5090717;28;20135;-71
2023/04/19 03:09:15;;;;;;;6.75;5.00;;;;;;;;;;5090958;28;20051;-71
2023/04/19 03:11:42;;;;;;;8.70;5.13;;;;;;;;;;5090599;28;20044;-71
2023/04/19 03:14:09;;;;;;;6.28;4.80;;;;;;;;;;5090777;28;20109;-71
2023/04/19 03:16:36;;;;;;;7.22;5.45;;;;;;;;;;5090700;28;20044;-71
2023/04/19 03:19:03;;;;;;;7.47;5.07;;;;;;;;;;5090425;28;20048;-70
2023/04/19 03:21:30;;;;;;;6.68;5.10;;;;;;;;;;5090386;28;20503;-71
2023/04/19 03:23:58;;;;;;;6.70;4.72;;;;;;;;;;5090867;28;20482;-71
2023/04/19 03:26:25;;;;;;;8.73;5.38;;;;;;;;;;5090213;28;20127;-72
2023/04/19 03:28:52;;;;;;;7.88;5.30;;;;;;;;;;5090272;28;20315;-71
2023/04/19 03:31:19;;;;;;;6.70;5.03;;;;;;;;;;5090448;28;20086;-71
2023/04/19 03:33:45;;;;;;;6.38;5.03;;;;;;;;;;5090344;28;20516;-71
2023/04/19 03:36:12;;;;;;;6.30;5.13;;;;;;;;;;5090327;28;20043;-72
2023/04/19 03:38:39;;;;;;;6.95;5.25;;;;;;;;;;5090139;28;20501;-70
2023/04/19 03:41:18;;;;;;;6.60;4.75;;;;;;;;;;5090267;28;20044;-73
2023/04/19 03:43:44;;;;;;;6.88;5.00;;;;;;;;;;5090164;28;20066;-71
2023/04/19 03:46:11;;;;;;;7.18;4.93;;;;;;;;;;5090513;28;20043;-70
2023/04/19 03:48:38;;;;;;;7.68;5.43;;;;;;;;;;5089782;28;20040;-72
2023/04/19 03:51:04;;;;;;;6.68;4.65;;;;;;;;;;5090471;28;20048;-71
2023/04/19 03:53:31;;;;;;;6.20;4.88;;;;;;;;;;5090130;28;20098;-71
2023/04/19 03:55:58;;;;;;;6.25;4.68;;;;;;;;;;5090327;28;20048;-72
2023/04/19 03:58:26;;;;;;;7.95;4.97;;;;;;;;;;5089708;28;20127;-71
2023/04/19 04:00:52;;;;;;;6.95;4.97;;;;;;;;;;5090488;28;20070;-72
2023/04/19 04:03:19;;;;;;;6.47;5.10;;;;;;;;;;5089791;28;20052;-71
2023/04/19 04:05:46;;;;;;;7.00;4.88;;;;;;;;;;5090442;28;20048;-71
2023/04/19 04:08:13;;;;;;;5.30;4.50;;;;;;;;;;5090122;28;20093;-70
2023/04/19 04:10:40;;;;;;;9.15;5.38;;;;;;;;;;5090055;28;20139;-73
2023/04/19 04:13:06;;;;;;;7.55;5.30;;;;;;;;;;5089746;28;20409;-71
2023/04/19 04:15:34;;;;;;;7.65;5.28;;;;;;;;;;5089780;28;20047;-70
2023/04/19 04:18:01;;;;;;;7.38;4.75;;;;;;;;;;5089393;28;20041;-71
2023/04/19 04:20:28;;;;;;;6.75;5.05;;;;;;;;;;5090053;28;20408;-71
2023/04/19 04:22:55;;;;;;;6.90;4.75;;;;;;;;;;5089694;28;20080;-72
2023/04/19 04:25:21;;;;;;;6.03;4.55;;;;;;;;;;5089816;28;20050;-71
2023/04/19 04:27:50;;;;;;;7.20;4.40;;;;;;;;;;5089183;28;20050;-71
2023/04/19 04:30:17;;;;;;;8.60;4.78;;;;;;;;;;5089543;28;20044;-70
2023/04/19 04:32:46;;;;;;;6.50;5.00;;;;;;;;;;5089550;28;20040;-72
2023/04/19 04:35:13;;;;;;;5.70;4.35;;;;;;;;;;5089811;28;20331;-70
2023/04/19 04:37:40;;;;;;;8.23;4.88;;;;;;;;;;5089623;28;20138;-71
2023/04/19 04:40:07;;;;;;;7.15;5.00;;;;;;;;;;5089361;28;20074;-71
2023/04/19 04:42:34;;;;;;;8.50;5.05;;;;;;;;;;5090078;28;20130;-71
2023/04/19 04:45:01;;;;;;;7.93;5.40;;;;;;;;;;5115538;22;20044;-74
2023/04/19 04:47:31;;;;;;;7.38;5.40;;;;;;;;;;5110424;28;20054;-74
2023/04/19 04:49:59;;;;;;;13.20;5.15;;;;;;;;;;5110377;28;20139;-73
2023/04/19 04:52:25;;;;;;;7.25;5.38;;;;;;;;;;5110333;28;20047;-74
2023/04/19 04:54:52;;;;;;;7.05;5.32;;;;;;;;;;5110480;28;20040;-74
2023/04/19 04:57:18;;;;;;;7.20;5.13;;;;;;;;;;5110497;28;20047;-73
2023/04/19 04:59:46;;;;;;;7.53;4.95;;;;;;;;;;5109645;28;20043;-74
2023/04/19 05:02:13;;;;;;;9.23;5.60;;;;;;;;;;5110390;28;20402;-75
2023/04/19 05:04:40;;;;;;;7.40;5.18;;;;;;;;;;5109850;28;20047;-73
2023/04/19 05:07:08;;;;;;;7.72;5.65;;;;;;;;;;5110608;28;20071;-74
2023/04/19 05:09:34;;;;;;;8.38;5.72;;;;;;;;;;5110234;28;20047;-74
2023/04/19 05:12:01;;;;;;;8.32;5.55;;;;;;;;;;5110515;28;20044;-74
2023/04/19 05:14:27;;;;;;;8.60;6.05;;;;;;;;;;5110817;28;20043;-74
2023/04/19 05:16:54;;;;;;;8.43;5.57;;;;;;;;;;5113678;28;20059;-73
2023/04/19 05:19:21;;;;;;;9.68;5.38;;;;;;;;;;5113623;28;20047;-74
2023/04/19 05:21:48;;;;;;;11.70;6.47;;;;;;;;;;5113938;28;20499;-74
2023/04/19 05:24:16;;;;;;;10.15;5.72;;;;;;;;;;5113818;28;20040;-74
2023/04/19 05:26:42;;;;;;;9.40;5.57;;;;;;;;;;5113860;28;20055;-72
2023/04/19 05:29:09;;;;;;;10.18;5.75;;;;;;;;;;5113907;28;20377;-73
2023/04/19 05:31:36;;;;;;;8.43;6.20;;;;;;;;;;5113613;28;20058;-73
2023/04/19 05:34:02;;;;;;;8.77;5.95;;;;;;;;;;5113824;28;20135;-72
2023/04/19 05:36:29;;;;;;;8.00;5.95;;;;;;;;;;5113245;28;20055;-74
2023/04/19 05:38:56;;;;;;;9.65;5.90;;;;;;;;;;5113297;28;20497;-74
2023/04/19 05:41:24;;;;;;;10.45;6.25;;;;;;;;;;5113440;28;20062;-73
2023/04/19 05:43:51;;;;;;;9.15;5.93;;;;;;;;;;5113296;28;20039;-73
2023/04/19 05:46:17;;;;;;;9.75;5.50;;;;;;;;;;5113152;28;20044;-74
2023/04/19 05:48:44;;;;;;;9.52;6.80;;;;;;;;;;5113395;28;20046;-73
2023/04/19 05:51:11;;;;;;;9.20;5.97;;;;;;;;;;5113173;28;20054;-74
2023/04/19 05:53:37;;;;;;;10.98;6.18;;;;;;;;;;5113548;28;20066;-74
2023/04/19 05:56:04;;;;;;;13.73;6.63;;;;;;;;;;5113215;28;20047;-73
2023/04/19 05:58:32;;;;;;;8.07;5.85;;;;;;;;;;5113428;28;20445;-72
2023/04/19 06:00:59;;;;;;;10.55;6.13;;;;;;;;;;5112717;28;20138;-74
2023/04/19 06:03:26;;;;;;;7.70;6.03;;;;;;;;;;5113081;28;20059;-73
2023/04/19 06:05:52;;;;;;;9.73;5.93;;;;;;;;;;5112669;28;20044;-74
2023/04/19 06:08:19;;;;;;;13.63;7.03;;;;;;;;;;5112900;28;20051;-75
2023/04/19 06:10:48;;;;;;;11.40;7.32;;;;;;;;;;5112964;28;20554;-72
2023/04/19 06:13:14;;;;;;;12.30;6.45;;;;;;;;;;5113336;28;20542;-74
2023/04/19 06:15:43;;;;;;;9.73;6.55;;;;;;;;;;5113094;28;20044;-74
2023/04/19 06:18:10;;;;;;;11.88;6.78;;;;;;;;;;5112620;28;20047;-74
2023/04/19 06:20:36;;;;;;;10.02;6.97;;;;;;;;;;5112890;28;20048;-74
2023/04/19 06:23:03;;;;;;;9.93;6.63;;;;;;;;;;5112819;28;20130;-74
2023/04/19 06:25:30;;;;;;;10.77;7.38;;;;;;;;;;5112896;28;20128;-73
2023/04/19 06:27:57;;;;;;;9.55;6.70;;;;;;;;;;5112147;28;20053;-73
2023/04/19 06:30:23;;;;;;;11.57;7.30;;;;;;;;;;5112646;28;20485;-74
2023/04/19 06:32:51;;;;;;;11.20;7.03;;;;;;;;;;5112219;28;20134;-74
2023/04/19 06:35:18;;;;;;;9.68;6.85;;;;;;;;;;5112426;28;20519;-74
2023/04/19 06:37:45;;;;;;;12.52;7.75;;;;;;;;;;5112193;28;20127;-74
2023/04/19 06:40:12;;;;;;;11.25;7.05;;;;;;;;;;5112486;28;20043;-73
2023/04/19 06:42:38;;;;;;;9.48;6.93;;;;;;;;;;5112426;28;20083;-71
2023/04/19 06:45:06;;;;;;;12.77;7.80;;;;;;;;;;5112103;28;20048;-73
2023/04/19 06:47:33;;;;;;;10.15;7.15;;;;;;;;;;5112335;28;20469;-73
2023/04/19 06:50:00;;;;;;;12.48;7.78;;;;;;;;;;5112975;27;20043;-75
2023/04/19 06:52:28;;;;;;;12.00;7.15;;;;;;;;;;5124298;27;20143;-74
2023/04/19 06:54:55;;;;;;;12.82;7.93;;;;;;;;;;5112000;28;20047;-74
2023/04/19 06:57:22;;;;;;;11.93;7.93;;;;;;;;;;5111678;28;20372;-73
2023/04/19 06:59:48;;;;;;;12.88;9.40;;;;;;;;;;5111183;28;20047;-75
2023/04/19 07:02:15;;;;;;;10.38;7.63;;;;;;;;;;5111057;28;20048;-72
2023/04/19 07:04:41;;;;;;;12.13;7.70;;;;;;;;;;5108664;28;20507;-74
2023/04/19 07:07:09;;;;;;;11.30;7.05;;;;;;;;;;5090424;28;20095;-75
2023/04/19 07:09:36;;;;;;;12.38;8.00;;;;;;;;;;5098900;28;20040;-74
2023/04/19 07:12:03;;;;;;;13.05;7.80;;;;;;;;;;5111171;28;20043;-75
2023/04/19 07:14:29;;;;;;;12.90;7.43;;;;;;;;;;5111010;28;20477;-73
2023/04/19 07:16:56;;;;;;;10.27;7.57;;;;;;;;;;5110957;28;20067;-74
2023/04/19 07:19:23;;;;;;;10.85;7.18;;;;;;;;;;5110975;28;20047;-74
2023/04/19 07:21:50;;;;;;;12.55;7.93;;;;;;;;;;5111533;28;20536;-74
2023/04/19 07:24:18;;;;;;;10.82;7.20;;;;;;;;;;5111089;28;20134;-73
2023/04/19 07:26:45;;;;;;;12.13;8.02;;;;;;;;;;5111530;28;20054;-74
2023/04/19 07:29:11;;;;;;;10.77;7.45;;;;;;;;;;5111072;28;20051;-74
2023/04/19 07:31:40;;;;;;;10.48;7.07;;;;;;;;;;5110365;27;20130;-72
2023/04/19 07:34:07;;;;;;;10.00;7.18;;;;;;;;;;5110764;28;20055;-74
2023/04/19 07:36:35;;;;;;;10.57;6.95;;;;;;;;;;5109818;27;20077;-73
2023/04/19 07:39:03;;;;;;;9.98;7.30;;;;;;;;;;5126568;27;20049;-73
2023/04/19 07:41:31;;;;;;;12.77;7.57;;;;;;;;;;5130595;27;20453;-74
2023/04/19 07:43:58;;;;;;;14.98;7.72;;;;;;;;;;5129757;27;20082;-73
2023/04/19 07:46:25;;;;;;;9.93;7.00;;;;;;;;;;5130292;27;20138;-72
2023/04/19 07:48:51;;;;;;;9.30;7.00;;;;;;;;;;5130670;27;20050;-72
2023/04/19 07:51:18;;;;;;;10.70;7.05;;;;;;;;;;5123647;27;20045;-73
2023/04/19 07:53:48;;;;;;;10.18;6.78;;;;;;;;;;5129572;27;20048;-73
2023/04/19 07:56:15;;;;;;;10.75;6.88;;;;;;;;;;5130731;27;20484;-72
2023/04/19 07:58:43;;;;;;;9.80;7.07;;;;;;;;;;5128366;27;20047;-73
2023/04/19 08:01:10;;;;;;;10.50;7.65;;;;;;;;;;5130916;27;20404;-73
2023/04/19 08:03:37;;;;;;;10.35;7.22;;;;;;;;;;5131103;27;20517;-74
2023/04/19 08:06:06;;;;;;;10.27;6.78;;;;;;;;;;5130582;27;20126;-73
2023/04/19 08:08:32;;;;;;;9.98;7.35;;;;;;;;;;5130886;27;20493;-74
2023/04/19 08:11:00;;;;;;;10.60;7.63;;;;;;;;;;5131129;27;20138;-72
2023/04/19 08:13:27;;;;;;;11.45;7.35;;;;;;;;;;5130280;28;20083;-71
2023/04/19 08:15:55;;;;;;;10.65;7.50;;;;;;;;;;5112780;28;20056;-72
2023/04/19 08:18:22;;;;;;;10.77;7.03;;;;;;;;;;5110656;28;20098;-73
2023/04/19 08:20:48;;;;;;;8.80;7.35;;;;;;;;;;5109794;28;20132;-73
2023/04/19 08:23:15;;;;;;;10.50;7.15;;;;;;;;;;5110873;28;20079;-74
2023/04/19 08:25:42;;;;;;;10.63;7.40;;;;;;;;;;5110869;28;20049;-73
2023/04/19 08:28:08;;;;;;;11.05;6.65;;;;;;;;;;5110472;28;20448;-74
2023/04/19 08:30:35;;;;;;;11.02;7.15;;;;;;;;;;5110964;28;20040;-73
2023/04/19 08:33:03;;;;;;;11.50;6.75;;;;;;;;;;5110624;28;20397;-73
2023/04/19 08:35:30;;;;;;;8.52;6.70;;;;;;;;;;5111202;28;20055;-72
2023/04/19 08:37:56;;;;;;;9.50;6.80;;;;;;;;;;5110563;28;20047;-73
2023/04/19 08:40:24;;;;;;;11.80;6.90;;;;;;;;;;5110870;28;20050;-73
2023/04/19 08:42:50;;;;;;;9.32;6.47;;;;;;;;;;5110858;28;20498;-74
2023/04/19 08:45:19;;;;;;;9.13;6.07;;;;;;;;;;5110622;28;20048;-74
2023/04/19 08:47:47;;;;;;;9.50;6.32;;;;;;;;;;5110137;28;20043;-72
2023/04/19 08:50:17;;;;;;;8.90;6.43;;;;;;;;;;5111105;28;20523;-73
2023/04/19 08:52:44;;;;;;;9.25;6.97;;;;;;;;;;5114030;28;20039;-73
2023/04/19 08:55:11;;;;;;;10.00;7.22;;;;;;;;;;5114520;28;20054;-73
2023/04/19 08:57:38;;;;;;;7.97;6.25;;;;;;;;;;5114392;28;20044;-73
2023/04/19 09:00:07;;;;;;;9.25;7.38;;;;;;;;;;5113713;28;20115;-74
2023/04/19 09:02:45;;;;;;;9.82;6.78;;;;;;;;;;5114211;28;20468;-74
2023/04/19 09:05:12;;;;;;;9.93;7.03;;;;;;;;;;5114194;28;20047;-73
2023/04/19 09:07:41;;;;;;;8.60;6.47;;;;;;;;;;5114411;28;20492;-73
2023/04/19 09:10:09;;;;;;;9.80;7.15;;;;;;;;;;5114007;28;20207;-73
2023/04/19 09:12:37;;;;;;;8.55;6.45;;;;;;;;;;5113843;28;20050;-74
2023/04/19 09:15:07;;;;;;;9.55;6.60;;;;;;;;;;5113950;28;20507;-74
2023/04/19 09:17:34;;;;;;;9.13;6.43;;;;;;;;;;5113670;28;20047;-73
2023/04/19 09:20:01;;;;;;;9.55;6.05;;;;;;;;;;5113442;28;20139;-74
2023/04/19 09:22:28;;;;;;;7.93;5.88;;;;;;;;;;5113841;28;20134;-73
2023/04/19 09:24:56;;;;;;;8.75;5.90;;;;;;;;;;5114156;28;20054;-74
2023/04/19 09:27:26;;;;;;;7.47;5.72;;;;;;;;;;5114327;28;20495;-73
2023/04/19 09:29:54;;;;;;;8.63;6.03;;;;;;;;;;5113740;28;20112;-74
2023/04/19 09:32:20;;;;;;;9.38;5.60;;;;;;;;;;5112964;28;20050;-73
2023/04/19 09:34:52;;;;;;;8.25;5.95;;;;;;;;;;5113589;28;20050;-73
2023/04/19 09:37:19;;;;;;;7.70;6.05;;;;;;;;;;5113226;28;20047;-73
2023/04/19 09:39:45;;;;;;;9.38;6.20;;;;;;;;;;5113460;28;20050;-73
2023/04/19 09:42:13;;;;;;;7.93;5.95;;;;;;;;;;5112750;28;20054;-74
2023/04/19 09:44:40;;;;;;;7.60;5.85;;;;;;;;;;5113220;28;20557;-72
2023/04/19 09:47:22;;;;;;;8.93;6.35;;;;;;;;;;5112633;28;20560;-74
2023/04/19 09:50:04;;;;;;;7.88;6.05;;;;;;;;;;5113246;28;20051;-74
2023/04/19 09:52:32;;;;;;;7.07;5.47;;;;;;;;;;5113028;28;20442;-74
2023/04/19 09:55:01;;;;;;;6.32;5.20;;;;;;;;;;5113167;28;20050;-74
2023/04/19 09:57:29;;;;;;;9.23;6.03;;;;;;;;;;5112429;28;20047;-73
2023/04/19 09:59:58;;;;;;;8.38;5.57;;;;;;;;;;5113071;28;20145;-72
2023/04/19 10:02:26;;;;;;;6.78;5.38;;;;;;;;;;5112146;28;20145;-74
2023/04/19 10:04:55;;;;;;;7.68;5.55;;;;;;;;;;5112591;28;20048;-72
2023/04/19 10:07:22;;;;;;;7.65;5.25;;;;;;;;;;5112630;28;20554;-74
2023/04/19 10:09:51;;;;;;;7.50;6.05;;;;;;;;;;5112494;28;20047;-74
2023/04/19 10:12:18;;;;;;;9.48;5.00;;;;;;;;;;5112488;28;20054;-73
2023/04/19 10:14:46;;;;;;;9.43;5.53;;;;;;;;;;5124256;27;20047;-72
2023/04/19 10:17:13;;;;;;;8.18;5.53;;;;;;;;;;5132502;27;20039;-73
2023/04/19 10:19:42;;;;;;;7.03;5.60;;;;;;;;;;5115311;27;20079;-73
2023/04/19 10:22:09;;;;;;;6.93;5.15;;;;;;;;;;5113200;28;20048;-70
2023/04/19 10:24:36;;;;;;;8.00;5.18;;;;;;;;;;5112193;28;20408;-70
2023/04/19 10:27:10;;;;;;;6.35;5.13;;;;;;;;;;5112878;28;20092;-70
2023/04/19 10:29:57;;;;;;;7.47;5.30;;;;;;;;;;5112430;28;20055;-71
2023/04/19 10:32:26;;;;;;;9.40;5.57;;;;;;;;;;5112701;28;20483;-73
2023/04/19 10:34:53;;;;;;;6.82;5.05;;;;;;;;;;5112798;28;20549;-73
2023/04/19 10:37:23;;;;;;;7.03;5.60;;;;;;;;;;5112496;28;20040;-72
2023/04/19 10:39:50;;;;;;;6.15;5.32;;;;;;;;;;5112818;28;20447;-73
2023/04/19 10:42:17;;;;;;;7.40;5.40;;;;;;;;;;5112414;28;20039;-73
2023/04/19 10:45:17;;;;;;;7.55;5.00;;;;;;;;;;5115611;22;20048;-72
2023/04/19 10:47:45;;;;;;;6.43;4.70;;;;;;;;;;5070678;28;20052;-72
2023/04/19 10:50:12;;;;;;;6.30;5.00;;;;;;;;;;5070945;28;20048;-71
2023/04/19 10:52:38;;;;;;;5.75;4.50;;;;;;;;;;5066234;28;20048;-72
2023/04/19 10:55:06;;;;;;;7.60;4.85;;;;;;;;;;5070649;28;20044;-71
2023/04/19 10:58:01;;;;;;;6.05;5.10;;;;;;;;;;5070745;28;20056;-72
2023/04/19 11:00:30;;;;;;;6.70;4.95;;;;;;;;;;5070411;28;20057;-71
2023/04/19 11:02:59;;;;;;;7.07;5.20;;;;;;;;;;5070710;28;20139;-71
2023/04/19 11:05:26;;;;;;;6.35;4.93;;;;;;;;;;5070365;28;20050;-71
2023/04/19 11:07:52;;;;;;;6.57;4.72;;;;;;;;;;5070526;28;20051;-71
2023/04/19 11:10:29;;;;;;;6.00;4.57;;;;;;;;;;5069381;28;20040;-71
2023/04/19 11:12:57;;;;;;;5.75;5.00;;;;;;;;;;5053096;28;20140;-71
2023/04/19 11:15:24;;;;;;;6.45;5.32;;;;;;;;;;5049826;28;20132;-71
2023/04/19 11:17:51;;;;;;;7.57;5.35;;;;;;;;;;5050121;28;20059;-71
2023/04/19 11:20:23;;;;;;;7.97;4.72;;;;;;;;;;5050060;28;20076;-72
2023/04/19 11:22:49;;;;;;;7.20;4.80;;;;;;;;;;5050272;28;20045;-72
2023/04/19 11:25:18;;;;;;;12.05;5.38;;;;;;;;;;5049851;28;20045;-71
2023/04/19 11:27:46;;;;;;;6.07;4.60;;;;;;;;;;5050231;28;20179;-73
2023/04/19 11:30:15;;;;;;;7.80;5.18;;;;;;;;;;5050243;28;20044;-72
2023/04/19 11:32:47;;;;;;;8.07;5.93;;;;;;;;;;5062404;28;20497;-72
2023/04/19 11:35:14;;;;;;;9.17;5.03;;;;;;;;;;5062539;28;20232;-72
2023/04/19 11:37:42;;;;;;;5.90;4.88;;;;;;;;;;5054110;28;20403;-71
2023/04/19 11:40:09;;;;;;;7.47;4.72;;;;;;;;;;5070008;28;20132;-72
2023/04/19 11:42:36;;;;;;;6.85;4.85;;;;;;;;;;5070134;28;20406;-72
2023/04/19 11:45:03;;;;;;;5.70;4.65;;;;;;;;;;5070245;28;20078;-72
2023/04/19 11:47:30;;;;;;;9.35;5.30;;;;;;;;;;5069419;28;20045;-72
2023/04/19 11:49:56;;;;;;;7.63;5.15;;;;;;;;;;5069833;28;20048;-72
2023/04/19 11:52:24;;;;;;;7.07;5.47;;;;;;;;;;5070593;28;20379;-72
2023/04/19 11:54:53;;;;;;;7.53;5.38;;;;;;;;;;5069583;28;20044;-71
2023/04/19 11:57:30;;;;;;;7.72;5.07;;;;;;;;;;5069471;28;20055;-72
2023/04/19 12:00:07;;;;;;;6.80;5.18;;;;;;;;;;5069318;28;20058;-72
2023/04/19 12:02:38;;;;;;;6.45;5.15;;;;;;;;;;5069237;28;20059;-72
2023/04/19 12:05:09;;;;;;;6.88;4.57;;;;;;;;;;5064388;28;20066;-72
2023/04/19 12:07:36;;;;;;;6.22;4.32;;;;;;;;;;5051419;28;20127;-72
2023/04/19 12:10:11;;;;;;;5.82;4.20;;;;;;;;;;5066429;28;20150;-72
2023/04/19 12:12:38;;;;;;;5.75;4.15;;;;;;;;;;5068940;28;20040;-72
2023/04/19 12:15:06;;;;;;;5.50;4.00;;;;;;;;;;5069098;28;20044;-73
2023/04/19 12:17:32;;;;;;;4.78;3.60;;;;;;;;;;5069555;28;20044;-72
2023/04/19 12:19:59;;;;;;;6.13;4.05;;;;;;;;;;5069571;28;20418;-70
2023/04/19 12:22:25;;;;;;;7.60;4.03;;;;;;;;;;5069088;28;20060;-71
2023/04/19 12:24:54;;;;;;;6.00;3.22;;;;;;;;;;5071026;28;20049;-71
2023/04/19 12:27:22;;;;;;;6.40;3.50;;;;;;;;;;5072668;28;20136;-71
2023/04/19 12:29:48;;;;;;;5.95;4.10;;;;;;;;;;5073827;28;20045;-71
2023/04/19 12:32:15;;;;;;;5.43;3.53;;;;;;;;;;5073515;28;20044;-71
2023/04/19 12:34:41;;;;;;;5.95;3.70;;;;;;;;;;5071071;28;20075;-71
2023/04/19 12:37:08;;;;;;;6.15;3.92;;;;;;;;;;5051724;28;20041;-72
2023/04/19 12:39:35;;;;;;;5.47;3.63;;;;;;;;;;5071957;28;20048;-72
2023/04/19 12:42:02;;;;;;;4.45;3.58;;;;;;;;;;5073336;28;20048;-71
2023/04/19 12:44:29;;;;;;;4.32;3.88;;;;;;;;;;5072701;28;20056;-71
2023/04/19 12:46:56;;;;;;;5.50;3.97;;;;;;;;;;5073288;28;20044;-72
2023/04/19 12:49:23;;;;;;;6.57;4.13;;;;;;;;;;5073325;28;20055;-72
2023/04/19 12:51:50;;;;;;;5.60;3.83;;;;;;;;;;5073558;28;20041;-71
2023/04/19 12:54:16;;;;;;;6.90;3.97;;;;;;;;;;5072334;28;20506;-72
2023/04/19 12:56:43;;;;;;;6.93;3.88;;;;;;;;;;5055359;28;20486;-72
2023/04/19 12:59:10;;;;;;;4.75;3.95;;;;;;;;;;5063516;28;20495;-72
2023/04/19 13:01:38;;;;;;;5.32;3.85;;;;;;;;;;5073099;28;20425;-72
2023/04/19 13:04:06;;;;;;;6.72;4.25;;;;;;;;;;5072740;28;20051;-71
2023/04/19 13:06:33;;;;;;;5.28;3.78;;;;;;;;;;5072440;28;20056;-71
2023/04/19 13:08:59;;;;;;;5.53;4.07;;;;;;;;;;5072303;28;20502;-71
2023/04/19 13:11:26;;;;;;;4.20;3.70;;;;;;;;;;5072210;28;20506;-71
2023/04/19 13:13:52;;;;;;;4.60;3.50;;;;;;;;;;5072355;28;20060;-71
2023/04/19 13:16:19;;;;;;;5.60;3.72;;;;;;;;;;5072270;28;20055;-71
2023/04/19 13:18:48;;;;;;;6.00;3.85;;;;;;;;;;5072262;28;20452;-72
2023/04/19 13:21:14;;;;;;;6.30;4.00;;;;;;;;;;5057123;28;20128;-71
2023/04/19 13:23:43;;;;;;;5.18;3.20;;;;;;;;;;5051864;28;20053;-71
2023/04/19 13:26:10;;;;;;;3.80;3.40;;;;;;;;;;5052336;28;20045;-71
2023/04/19 13:28:37;;;;;;;5.80;4.00;;;;;;;;;;5050318;28;20048;-72
2023/04/19 13:31:04;;;;;;;7.25;3.97;;;;;;;;;;5071030;28;20045;-71
2023/04/19 13:33:31;;;;;;;5.25;3.20;;;;;;;;;;5072085;28;20045;-71
2023/04/19 13:35:59;;;;;;;7.40;3.05;;;;;;;;;;5071277;28;20429;-71
2023/04/19 13:38:25;;;;;;;4.85;2.92;;;;;;;;;;5071537;28;20048;-71
2023/04/19 13:40:52;;;;;;;3.67;2.60;;;;;;;;;;5072285;28;20049;-71
2023/04/19 13:43:18;;;;;;;2.95;2.72;;;;;;;;;;5072020;28;20048;-71
2023/04/19 13:45:45;;;;;;;3.70;2.45;;;;;;;;;;5071912;28;20045;-72
2023/04/19 13:48:12;;;;;;;2.33;1.92;;;;;;;;;;5071946;28;20048;-72
2023/04/19 13:50:38;;;;;;;4.95;2.28;;;;;;;;;;5066327;28;20036;-72
2023/04/19 13:53:06;;;;;;;3.40;1.95;;;;;;;;;;5052139;28;20064;-72
2023/04/19 13:55:33;;;;;;;2.50;2.10;;;;;;;;;;5051663;28;20495;-73
2023/04/19 13:58:00;;;;;;;2.90;2.28;;;;;;;;;;5052183;28;20479;-72
2023/04/19 14:00:27;;;;;;;3.60;2.50;;;;;;;;;;5051630;28;20045;-73
2023/04/19 14:02:54;;;;;;;2.38;1.92;;;;;;;;;;5051758;28;20414;-73
2023/04/19 14:05:21;;;;;;;2.60;2.15;;;;;;;;;;5050391;28;20468;-72
2023/04/19 14:07:48;;;;;;;3.40;1.88;;;;;;;;;;5051357;28;20049;-73
2023/04/19 14:10:16;;;;;;;2.47;1.80;;;;;;;;;;5051875;28;20069;-72
2023/04/19 14:12:43;;;;;;;3.35;2.10;;;;;;;;;;5070548;28;20099;-72
2023/04/19 14:15:11;;;;;;;3.17;2.58;;;;;;;;;;5071501;28;20051;-71
2023/04/19 14:17:38;;;;;;;4.85;2.63;;;;;;;;;;5070829;28;20054;-73
2023/04/19 14:20:06;;;;;;;3.08;2.50;;;;;;;;;;5064994;28;20510;-70
2023/04/19 14:22:33;;;;;;;2.75;2.05;;;;;;;;;;5066370;28;20135;-73
2023/04/19 14:25:00;;;;;;;3.42;2.03;;;;;;;;;;5071186;28;20055;-72
2023/04/19 14:27:28;;;;;;;2.88;2.30;;;;;;;;;;5071057;28;20052;-72
2023/04/19 14:29:54;;;;;;;3.28;1.95;;;;;;;;;;5071352;28;20048;-72
2023/04/19 14:32:21;;;;;;;3.20;2.53;;;;;;;;;;5071214;28;20048;-71
2023/04/19 14:34:48;;;;;;;2.60;2.40;;;;;;;;;;5070785;28;20482;-71
2023/04/19 14:37:14;;;;;;;2.63;2.10;;;;;;;;;;5070750;28;20044;-71
2023/04/19 14:39:41;;;;;;;2.60;2.20;;;;;;;;;;5070703;28;20040;-71
2023/04/19 14:42:07;;;;;;;7.45;2.78;;;;;;;;;;5070777;28;20047;-71